Time;durP1;ratioP1;P1;durP2;ratioP2;P2;SDS_P1;SDS_P2;PMS_P1;PMS_P2;Temp;Humidity;BMP_temperature;BMP_pressure;BME280_temperature;BME280_humidity;BME280_pressure;Samples;Min_cycle;Max_cycle;Signal;HPM_P1;HPM_P2
2021/10/01 00:00:37;;;;;;;14.40;10.70;;;;;;;5.82;87.14;101738.25;93736;1196;99121;-63
2021/10/01 00:02:46;;;;;;;18.30;12.20;;;;;;;5.87;87.20;101735.87;93797;1197;87549;-64
2021/10/01 00:04:51;;;;;;;14.60;10.50;;;;;;;5.89;87.20;101737.00;93772;1197;94810;-62
2021/10/01 00:06:55;;;;;;;14.20;11.30;;;;;;;5.84;87.13;101737.70;93814;1197;79213;-63
2021/10/01 00:08:59;;;;;;;16.40;11.40;;;;;;;5.80;87.09;101737.50;93778;1197;80637;-68
2021/10/01 00:11:04;;;;;;;16.50;12.10;;;;;;;5.74;87.06;101735.03;93824;1197;100350;-70
2021/10/01 00:13:08;;;;;;;16.50;11.70;;;;;;;5.68;86.86;101736.19;93756;1196;86959;-67
2021/10/01 00:15:12;;;;;;;16.40;10.80;;;;;;;5.63;86.92;101734.32;93756;1197;92619;-69
2021/10/01 00:17:17;;;;;;;14.30;11.90;;;;;;;5.63;86.81;101739.27;93744;1197;79516;-68
2021/10/01 00:19:24;;;;;;;15.80;11.90;;;;;;;5.61;86.89;101736.27;93795;1197;81394;-69
2021/10/01 00:21:28;;;;;;;18.30;11.90;;;;;;;5.59;87.03;101735.89;93811;1197;98908;-69
2021/10/01 00:23:33;;;;;;;16.00;12.20;;;;;;;5.56;87.10;101737.41;93787;1196;88398;-69
2021/10/01 00:25:37;;;;;;;17.30;12.20;;;;;;;5.55;87.09;101732.80;93769;1197;93191;-69
2021/10/01 00:27:41;;;;;;;16.50;11.40;;;;;;;5.51;87.13;101730.59;93764;1197;81200;-68
2021/10/01 00:29:46;;;;;;;15.70;11.50;;;;;;;5.55;87.15;101724.98;93770;1196;82102;-64
2021/10/01 00:31:51;;;;;;;17.40;12.10;;;;;;;5.59;87.28;101720.83;93849;1196;98508;-64
2021/10/01 00:33:55;;;;;;;15.90;11.40;;;;;;;5.62;87.40;101720.41;93790;1197;88972;-69
2021/10/01 00:36:03;;;;;;;20.10;12.70;;;;;;;5.61;87.23;101717.66;93762;1196;94693;-69
2021/10/01 00:38:07;;;;;;;16.00;12.00;;;;;;;5.59;87.18;101715.13;93782;1197;81983;-68
2021/10/01 00:40:13;;;;;;;15.90;12.10;;;;;;;5.56;87.26;101718.77;93785;1197;81213;-68
2021/10/01 00:42:17;;;;;;;12.40;10.70;;;;;;;5.56;87.25;101716.49;93748;1196;99987;-68
2021/10/01 00:44:21;;;;;;;12.80;11.20;;;;;;;5.55;87.27;101712.57;93713;1196;86586;-63
2021/10/01 00:46:26;;;;;;;15.30;11.20;;;;;;;5.54;87.23;101713.98;93685;1197;93259;-64
2021/10/01 00:48:30;;;;;;;13.70;11.60;;;;;;;5.52;87.10;101711.64;93796;1197;80823;-69
2021/10/01 00:50:38;;;;;;;15.20;12.00;;;;;;;5.50;87.15;101711.95;93772;1196;82016;-68
2021/10/01 00:52:43;;;;;;;13.70;11.20;;;;;;;5.46;87.11;101712.96;93672;1197;99106;-68
2021/10/01 00:54:48;;;;;;;16.10;11.90;;;;;;;5.45;87.20;101708.79;93781;1196;86884;-64
2021/10/01 00:56:53;;;;;;;18.80;11.50;;;;;;;5.49;87.28;101708.27;93717;1196;94289;-63
2021/10/01 00:58:57;;;;;;;15.90;11.70;;;;;;;5.50;87.25;101703.91;93759;1197;78195;-69
2021/10/01 01:01:09;;;;;;;16.70;12.40;;;;;;;5.46;87.30;101701.73;93731;1197;80511;-68
2021/10/01 01:03:14;;;;;;;16.60;12.30;;;;;;;5.42;87.20;101705.83;93759;1197;99128;-64
2021/10/01 01:05:18;;;;;;;15.90;12.50;;;;;;;5.40;87.16;101702.78;93776;1196;87182;-64
2021/10/01 01:07:33;;;;;;;18.10;12.60;;;;;;;5.42;87.19;101706.95;93697;1197;92683;-64
2021/10/01 01:09:50;;;;;;;17.50;12.20;;;;;;;5.44;87.24;101707.80;93747;1197;78343;-68
2021/10/01 01:12:05;;;;;;;16.00;12.70;;;;;;;5.43;87.21;101706.45;93768;1196;81508;-68
2021/10/01 01:14:17;;;;;;;16.40;12.90;;;;;;;5.40;87.27;101707.47;93718;1197;99444;-63
2021/10/01 01:16:29;;;;;;;19.40;13.20;;;;;;;5.36;87.02;101709.48;93710;1196;88047;-64
2021/10/01 01:18:42;;;;;;;16.80;12.40;;;;;;;5.33;87.01;101707.97;93737;1196;93071;-69
2021/10/01 01:20:52;;;;;;;16.70;12.70;;;;;;;5.26;87.09;101715.16;93764;1197;77821;-69
2021/10/01 01:23:40;;;;;;;18.70;12.60;;;;;;;5.18;87.14;101716.38;93757;1196;82428;-67
2021/10/01 01:26:03;;;;;;;17.60;13.00;;;;;;;5.10;87.12;101717.00;93752;1196;99475;-66
2021/10/01 01:28:12;;;;;;;17.20;12.90;;;;;;;5.04;87.20;101720.54;93741;1197;87031;-68
2021/10/01 01:30:21;;;;;;;17.40;11.60;;;;;;;4.97;87.19;101716.27;93719;1197;93716;-68
2021/10/01 01:32:27;;;;;;;18.70;12.30;;;;;;;4.94;87.24;101719.38;93746;1197;77902;-71
2021/10/01 01:34:35;;;;;;;16.40;11.70;;;;;;;4.88;87.39;101719.85;93741;1196;80587;-63
2021/10/01 01:36:41;;;;;;;17.40;12.70;;;;;;;4.84;87.25;101713.52;93807;1196;98405;-64
2021/10/01 01:38:51;;;;;;;17.10;12.30;;;;;;;4.81;87.14;101717.02;93789;1196;87065;-64
2021/10/01 01:41:00;;;;;;;17.70;13.10;;;;;;;4.77;87.25;101718.92;93712;1190;94965;-62
2021/10/01 01:43:08;;;;;;;15.20;12.40;;;;;;;4.76;87.24;101721.52;93731;1197;81407;-63
2021/10/01 01:45:17;;;;;;;16.30;12.80;;;;;;;4.76;87.41;101720.91;93773;1196;81259;-67
2021/10/01 01:47:21;;;;;;;17.60;13.00;;;;;;;4.82;87.39;101719.83;93765;1197;99023;-61
2021/10/01 01:49:28;;;;;;;19.40;13.90;;;;;;;4.84;87.48;101716.05;93760;1196;87481;-70
2021/10/01 01:51:34;;;;;;;17.00;12.40;;;;;;;4.81;87.47;101719.52;93751;1197;94427;-69
2021/10/01 01:53:41;;;;;;;18.10;12.90;;;;;;;4.77;87.40;101711.59;93715;1197;81440;-66
2021/10/01 01:55:47;;;;;;;16.10;12.30;;;;;;;4.73;87.40;101709.39;93746;1196;82041;-68
2021/10/01 01:57:55;;;;;;;16.10;12.70;;;;;;;4.71;87.43;101707.92;93760;1196;97336;-66
2021/10/01 02:00:00;;;;;;;17.60;12.90;;;;;;;4.68;87.46;101707.81;93744;1196;87026;-63
2021/10/01 02:02:06;;;;;;;16.30;12.70;;;;;;;4.67;87.39;101706.81;93746;1196;94107;-65
2021/10/01 02:04:15;;;;;;;21.40;13.80;;;;;;;4.65;87.28;101710.19;93733;1196;80917;-63
2021/10/01 02:06:20;;;;;;;17.30;13.40;;;;;;;4.64;87.45;101713.89;93793;1197;81426;-66
2021/10/01 02:08:26;;;;;;;14.50;12.00;;;;;;;4.60;87.20;101716.48;93774;1197;98409;-64
2021/10/01 02:10:32;;;;;;;15.00;12.30;;;;;;;4.58;87.34;101716.67;93712;1197;87184;-64
2021/10/01 02:12:37;;;;;;;17.40;12.00;;;;;;;4.55;87.44;101714.02;93779;1196;92910;-64
2021/10/01 02:14:49;;;;;;;16.50;11.80;;;;;;;4.51;87.51;101718.42;93746;1197;78462;-68
2021/10/01 02:16:55;;;;;;;17.00;12.80;;;;;;;4.47;87.63;101717.73;93738;1197;80513;-67
2021/10/01 02:19:02;;;;;;;17.10;12.30;;;;;;;4.44;87.48;101716.89;93698;1197;99439;-63
2021/10/01 02:21:07;;;;;;;16.50;12.40;;;;;;;4.44;87.52;101718.13;93783;1197;87466;-62
2021/10/01 02:23:12;;;;;;;17.60;11.90;;;;;;;4.43;87.43;101718.73;93757;1197;95015;-68
2021/10/01 02:27:51;;;;;;;19.90;13.00;;;;;;;4.44;87.58;101727.04;93771;1197;80702;-68
2021/10/01 02:30:02;;;;;;;15.40;13.70;;;;;;;4.45;87.76;101727.90;93750;1196;98700;-68
2021/10/01 02:32:16;;;;;;;19.00;12.60;;;;;;;4.49;87.73;101725.24;93786;1190;87869;-68
2021/10/01 02:34:35;;;;;;;15.60;12.10;;;;;;;4.52;87.76;101725.49;93676;1196;94532;-63
2021/10/01 02:36:42;;;;;;;15.60;11.50;;;;;;;4.51;87.73;101728.09;93763;1197;78161;-63
2021/10/01 02:38:46;;;;;;;18.60;12.30;;;;;;;4.45;87.65;101732.11;93737;1196;80522;-62
2021/10/01 02:40:50;;;;;;;20.00;12.00;;;;;;;4.38;87.64;101734.79;93775;1196;99419;-64
2021/10/01 02:42:55;;;;;;;16.50;11.90;;;;;;;4.35;87.53;101736.64;93744;1197;88464;-67
2021/10/01 02:45:00;;;;;;;15.30;11.50;;;;;;;4.32;87.34;101733.84;93664;1197;93782;-67
2021/10/01 02:47:05;;;;;;;16.40;12.00;;;;;;;4.33;87.27;101741.48;93780;1196;78849;-68
2021/10/01 02:49:09;;;;;;;16.20;11.50;;;;;;;4.36;87.60;101746.91;93752;1197;81595;-64
2021/10/01 02:51:19;;;;;;;17.40;12.50;;;;;;;4.36;87.67;101753.54;93769;1196;99609;-63
2021/10/01 02:53:32;;;;;;;14.50;12.30;;;;;;;4.36;87.48;101754.94;93754;1197;87251;-68
2021/10/01 02:55:43;;;;;;;20.10;12.50;;;;;;;4.27;87.48;101754.75;93714;1196;93732;-67
2021/10/01 02:58:04;;;;;;;17.80;12.20;;;;;;;4.21;87.40;101756.79;93733;1196;78008;-68
2021/10/01 03:00:12;;;;;;;15.20;11.30;;;;;;;4.14;87.42;101755.71;93739;1196;81716;-63
2021/10/01 03:02:20;;;;;;;18.50;12.20;;;;;;;4.12;87.40;101754.44;93738;1196;99242;-64
2021/10/01 03:04:26;;;;;;;18.40;13.50;;;;;;;4.09;87.52;101753.98;93690;1196;87469;-68
2021/10/01 03:06:35;;;;;;;15.30;11.80;;;;;;;4.11;87.57;101754.84;93790;1197;93112;-67
2021/10/01 03:08:40;;;;;;;17.10;12.40;;;;;;;4.09;87.54;101753.42;93730;1197;79610;-63
2021/10/01 03:10:47;;;;;;;18.50;13.20;;;;;;;4.07;87.43;101752.89;93766;1196;81465;-65
2021/10/01 03:12:55;;;;;;;19.40;13.00;;;;;;;4.04;87.68;101753.06;93720;1196;100337;-65
2021/10/01 03:15:00;;;;;;;21.10;14.00;;;;;;;4.01;87.54;101749.07;93654;1197;87513;-64
2021/10/01 03:17:05;;;;;;;19.70;13.10;;;;;;;3.99;87.58;101747.22;93746;1196;93701;-65
2021/10/01 03:19:10;;;;;;;18.30;12.50;;;;;;;3.96;87.65;101744.25;93777;1196;81190;-68
2021/10/01 03:21:17;;;;;;;16.90;12.90;;;;;;;3.95;87.52;101742.40;93797;1197;81255;-71
2021/10/01 03:23:23;;;;;;;16.80;13.40;;;;;;;3.93;87.58;101745.16;93713;1196;100410;-64
2021/10/01 03:25:30;;;;;;;18.50;13.10;;;;;;;3.92;87.69;101741.54;93744;1197;87672;-64
2021/10/01 03:27:35;;;;;;;18.90;12.90;;;;;;;3.91;87.68;101742.30;93733;1196;92644;-65
2021/10/01 03:29:43;;;;;;;14.80;12.00;;;;;;;3.89;87.62;101745.29;93746;1197;79981;-69
2021/10/01 03:31:49;;;;;;;18.70;12.60;;;;;;;3.88;87.51;101742.38;93737;1196;80976;-67
2021/10/01 03:33:54;;;;;;;16.70;12.80;;;;;;;3.87;87.66;101744.21;93731;1196;98645;-68
2021/10/01 03:36:01;;;;;;;17.10;12.00;;;;;;;3.87;87.65;101743.50;93723;1197;87433;-68
2021/10/01 03:38:09;;;;;;;19.30;12.20;;;;;;;3.85;87.62;101743.88;93734;1190;92950;-68
2021/10/01 03:40:15;;;;;;;19.30;13.50;;;;;;;3.80;87.77;101736.50;93735;1197;79016;-68
2021/10/01 03:42:19;;;;;;;18.80;13.00;;;;;;;3.78;87.73;101734.41;93762;1196;82293;-65
2021/10/01 03:44:24;;;;;;;16.70;13.40;;;;;;;3.77;87.70;101737.34;93718;1197;99011;-63
2021/10/01 03:46:28;;;;;;;15.60;11.80;;;;;;;3.76;87.59;101737.05;93735;1197;87872;-63
2021/10/01 03:48:32;;;;;;;17.00;11.90;;;;;;;3.76;87.71;101733.52;93710;1197;93909;-63
2021/10/01 03:50:37;;;;;;;15.20;11.30;;;;;;;3.75;87.73;101734.42;93769;1196;79117;-66
2021/10/01 03:52:43;;;;;;;18.20;13.10;;;;;;;3.73;87.74;101731.70;93782;1197;82012;-66
2021/10/01 03:54:49;;;;;;;19.00;12.40;;;;;;;3.73;87.86;101731.59;93804;1197;98385;-69
2021/10/01 03:56:56;;;;;;;17.20;11.80;;;;;;;3.72;87.71;101733.06;93754;1197;87328;-68
2021/10/01 03:59:00;;;;;;;15.10;11.20;;;;;;;3.71;87.95;101732.56;93731;1196;94911;-65
2021/10/01 04:01:08;;;;;;;14.00;11.60;;;;;;;3.72;87.94;101734.11;93716;1197;78939;-66
2021/10/01 04:03:15;;;;;;;14.50;12.10;;;;;;;3.71;87.84;101733.66;93752;1197;81735;-65
2021/10/01 04:05:19;;;;;;;18.20;13.60;;;;;;;3.68;87.97;101731.90;93693;1196;99314;-67
2021/10/01 04:07:23;;;;;;;14.60;12.40;;;;;;;3.66;88.04;101729.40;93771;1197;87368;-67
2021/10/01 04:09:28;;;;;;;17.70;12.40;;;;;;;3.66;87.90;101730.64;93730;1197;94661;-70
2021/10/01 04:11:34;;;;;;;14.70;11.00;;;;;;;3.66;88.02;101732.25;93742;1197;77444;-69
2021/10/01 04:13:40;;;;;;;18.50;12.90;;;;;;;3.66;88.07;101732.25;93784;1197;81588;-66
2021/10/01 04:15:44;;;;;;;15.50;12.60;;;;;;;3.66;87.97;101733.67;93796;1197;99257;-66
2021/10/01 04:17:49;;;;;;;20.90;13.20;;;;;;;3.64;87.94;101734.74;93770;1197;89278;-67
2021/10/01 04:19:57;;;;;;;15.90;11.90;;;;;;;3.62;88.02;101738.94;93764;1197;93162;-67
2021/10/01 04:22:01;;;;;;;18.70;14.10;;;;;;;3.62;87.98;101738.61;93732;1197;80495;-66
2021/10/01 04:24:06;;;;;;;13.90;11.70;;;;;;;3.63;87.93;101744.79;93762;1196;81257;-66
2021/10/01 04:26:17;;;;;;;17.20;12.40;;;;;;;3.61;87.94;101744.58;93761;1197;99560;-65
2021/10/01 04:28:21;;;;;;;17.30;12.80;;;;;;;3.59;87.99;101747.93;93813;1197;88114;-66
2021/10/01 04:30:26;;;;;;;19.40;13.90;;;;;;;3.56;88.08;101748.84;93760;1197;94812;-67
2021/10/01 04:32:36;;;;;;;17.40;12.30;;;;;;;3.54;88.04;101748.58;93715;1197;81325;-68
2021/10/01 04:34:57;;;;;;;16.70;12.50;;;;;;;3.57;88.02;101751.46;93683;1196;80321;-66
2021/10/01 04:37:03;;;;;;;16.10;12.50;;;;;;;3.56;88.19;101748.66;93779;1197;99004;-67
2021/10/01 04:39:07;;;;;;;16.40;12.90;;;;;;;3.55;88.17;101750.33;93785;1197;86558;-66
2021/10/01 04:41:12;;;;;;;15.60;13.00;;;;;;;3.58;88.15;101752.25;93783;1197;93682;-66
2021/10/01 04:43:16;;;;;;;19.10;13.70;;;;;;;3.61;88.18;101757.38;93749;1197;79997;-71
2021/10/01 04:45:20;;;;;;;15.70;12.80;;;;;;;3.64;88.23;101758.25;93820;1197;81108;-71
2021/10/01 04:47:25;;;;;;;14.60;12.00;;;;;;;3.63;88.12;101751.33;93753;1197;99082;-71
2021/10/01 04:49:29;;;;;;;15.70;12.40;;;;;;;3.64;88.17;101762.18;93762;1188;88049;-72
2021/10/01 04:51:33;;;;;;;15.90;12.90;;;;;;;3.64;88.15;101764.67;93780;1197;93506;-72
2021/10/01 04:53:37;;;;;;;16.40;13.20;;;;;;;3.64;88.16;101767.47;93751;1197;79748;-70
2021/10/01 04:55:42;;;;;;;17.50;13.40;;;;;;;3.65;88.19;101767.92;93776;1197;81677;-69
2021/10/01 04:57:46;;;;;;;18.80;13.60;;;;;;;3.69;88.25;101766.95;93771;1197;99665;-71
2021/10/01 04:59:52;;;;;;;17.90;13.20;;;;;;;3.72;88.31;101763.88;93811;1197;87560;-71
2021/10/01 05:01:59;;;;;;;20.00;15.70;;;;;;;3.76;88.36;101759.70;93819;1197;93467;-71
2021/10/01 05:04:04;;;;;;;17.10;14.60;;;;;;;3.83;88.47;101760.41;93758;1197;79047;-72
2021/10/01 05:06:08;;;;;;;20.00;15.80;;;;;;;3.88;88.32;101761.10;93797;1197;80706;-72
2021/10/01 05:08:13;;;;;;;21.10;16.50;;;;;;;3.94;88.26;101758.63;93691;1197;99728;-70
2021/10/01 05:10:18;;;;;;;21.90;16.30;;;;;;;4.02;88.32;101757.30;93734;1197;87749;-69
2021/10/01 05:12:23;;;;;;;20.10;14.60;;;;;;;4.10;88.33;101757.27;93706;1197;93053;-70
2021/10/01 05:14:27;;;;;;;18.90;14.70;;;;;;;4.20;88.40;101759.01;93717;1196;78945;-73
2021/10/01 05:16:32;;;;;;;18.40;15.10;;;;;;;4.28;88.54;101761.27;93745;1197;80602;-72
2021/10/01 05:18:36;;;;;;;20.20;14.90;;;;;;;4.32;88.46;101760.64;93758;1197;100201;-68
2021/10/01 05:20:41;;;;;;;18.90;15.60;;;;;;;4.35;88.60;101764.47;93662;1197;86919;-69
2021/10/01 05:22:45;;;;;;;19.80;14.80;;;;;;;4.42;88.55;101768.07;93714;1197;94481;-68
2021/10/01 05:24:50;;;;;;;17.60;14.20;;;;;;;4.52;88.66;101767.11;93711;1197;79530;-67
2021/10/01 05:26:54;;;;;;;22.40;14.80;;;;;;;4.61;88.62;101770.52;93749;1197;82636;-68
2021/10/01 05:28:58;;;;;;;19.10;15.00;;;;;;;4.72;88.67;101773.02;93673;1196;97757;-72
2021/10/01 05:31:03;;;;;;;17.30;14.60;;;;;;;4.80;88.63;101778.69;93722;1197;87999;-71
2021/10/01 05:33:09;;;;;;;16.70;14.40;;;;;;;4.91;88.62;101780.28;93660;1196;92731;-71
2021/10/01 05:35:13;;;;;;;18.70;14.80;;;;;;;5.01;88.63;101778.73;93734;1197;80735;-71
2021/10/01 05:37:18;;;;;;;15.80;12.80;;;;;;;5.20;88.57;101780.48;93728;1196;81223;-71
2021/10/01 05:39:23;;;;;;;22.30;15.40;;;;;;;5.45;88.72;101777.78;93747;1196;100630;-71
2021/10/01 05:41:30;;;;;;;15.50;13.70;;;;;;;5.67;88.90;101773.45;93727;1196;87315;-70
2021/10/01 05:43:34;;;;;;;17.40;13.60;;;;;;;5.79;88.79;101771.73;93774;1196;93114;-68
2021/10/01 05:45:40;;;;;;;19.00;14.50;;;;;;;5.84;88.72;101771.51;93718;1197;80488;-68
2021/10/01 05:47:44;;;;;;;17.30;14.20;;;;;;;5.93;88.72;101775.13;93713;1197;81749;-68
2021/10/01 05:49:48;;;;;;;20.30;15.70;;;;;;;6.03;89.08;101779.28;93685;1196;97155;-71
2021/10/01 05:52:00;;;;;;;16.70;14.00;;;;;;;6.23;89.41;101778.32;93684;1196;86801;-71
2021/10/01 05:54:16;;;;;;;17.70;15.50;;;;;;;6.32;89.46;101779.13;93737;1196;93674;-76
2021/10/01 05:56:20;;;;;;;17.10;14.40;;;;;;;6.47;89.66;101783.77;93707;1197;79429;-77
2021/10/01 05:58:27;;;;;;;16.40;13.70;;;;;;;6.57;89.52;101776.81;93703;1196;80570;-68
2021/10/01 06:00:31;;;;;;;18.50;14.30;;;;;;;6.69;89.36;101778.33;93703;1196;99993;-68
2021/10/01 06:02:36;;;;;;;18.90;15.00;;;;;;;6.90;89.53;101775.42;93745;1196;87422;-69
2021/10/01 06:04:40;;;;;;;16.90;14.20;;;;;;;7.06;89.35;101776.21;93664;1196;94242;-68
2021/10/01 06:06:44;;;;;;;17.30;13.80;;;;;;;7.18;89.33;101774.73;93671;1196;78768;-69
2021/10/01 06:08:48;;;;;;;16.70;13.90;;;;;;;7.25;89.33;101774.30;93669;1196;81998;-71
2021/10/01 06:10:53;;;;;;;23.80;18.40;;;;;;;7.31;89.13;101777.20;93738;1196;99349;-70
2021/10/01 06:12:57;;;;;;;55.90;44.20;;;;;;;7.38;89.10;101773.54;93696;1196;85940;-71
2021/10/01 06:15:02;;;;;;;40.20;29.30;;;;;;;7.49;89.09;101774.35;93718;1197;93455;-73
2021/10/01 06:17:08;;;;;;;29.30;23.90;;;;;;;7.61;89.17;101773.02;93755;1196;79183;-69
2021/10/01 06:19:12;;;;;;;22.40;17.40;;;;;;;7.74;89.02;101776.15;93696;1197;82138;-70
2021/10/01 06:21:17;;;;;;;21.20;15.40;;;;;;;7.86;89.13;101774.17;93725;1196;99996;-69
2021/10/01 06:23:23;;;;;;;19.70;14.90;;;;;;;7.97;89.19;101775.13;93715;1196;87871;-72
2021/10/01 06:25:27;;;;;;;19.90;14.50;;;;;;;8.07;89.09;101775.45;93707;1196;93122;-69
2021/10/01 06:27:31;;;;;;;18.10;14.60;;;;;;;8.21;89.03;101774.55;93719;1196;79718;-65
2021/10/01 06:29:37;;;;;;;18.30;15.30;;;;;;;8.36;89.05;101774.40;93647;1196;81792;-69
2021/10/01 06:31:44;;;;;;;17.80;15.20;;;;;;;8.50;89.12;101775.26;93690;1197;98709;-63
2021/10/01 06:33:49;;;;;;;20.90;15.80;;;;;;;8.66;89.08;101776.66;93706;1196;86468;-71
2021/10/01 06:35:53;;;;;;;19.00;15.60;;;;;;;8.82;88.92;101774.21;93697;1196;94187;-71
2021/10/01 06:37:58;;;;;;;19.20;16.00;;;;;;;9.00;88.90;101774.31;93718;1196;81357;-69
2021/10/01 06:40:10;;;;;;;20.70;15.50;;;;;;;9.14;88.80;101779.20;93651;1196;81628;-70
2021/10/01 06:42:16;;;;;;;22.10;15.60;;;;;;;9.24;88.65;101779.38;93747;1197;98747;-67
2021/10/01 06:44:24;;;;;;;18.60;16.20;;;;;;;9.36;88.72;101774.90;93665;1196;88191;-69
2021/10/01 06:46:35;;;;;;;17.20;15.20;;;;;;;9.48;88.65;101774.64;93736;1196;94261;-74
2021/10/01 06:48:50;;;;;;;21.40;16.40;;;;;;;9.59;88.51;101772.84;93633;1196;80478;-75
2021/10/01 06:51:18;;;;;;;21.30;17.10;;;;;;;9.71;88.49;101771.16;93657;1198;81606;-75
2021/10/01 07:22:22;;;;;;;17.90;14.50;;;;;;;11.43;87.03;101753.86;93784;1196;93216;-74
2021/10/01 07:38:56;;;;;;;16.10;13.10;;;;;;;12.06;86.00;101765.10;93608;1198;80057;-71
2021/10/01 08:20:18;;;;;;;13.40;11.50;;;;;;;24.14;66.81;101739.11;93724;1196;86155;-71
2021/10/01 08:22:22;;;;;;;13.60;12.20;;;;;;;24.58;64.94;101734.20;93736;1196;93349;-70
2021/10/01 08:24:28;;;;;;;12.90;10.90;;;;;;;24.66;63.64;101734.73;93740;1197;79924;-77
2021/10/01 08:26:33;;;;;;;12.20;10.90;;;;;;;25.11;62.68;101734.80;93724;1196;82143;-76
2021/10/01 08:28:37;;;;;;;11.90;10.40;;;;;;;25.39;61.61;101729.41;93705;1196;99181;-70
2021/10/01 08:30:41;;;;;;;13.20;11.10;;;;;;;25.83;60.62;101728.76;93725;1196;87102;-70
2021/10/01 08:32:45;;;;;;;12.60;11.30;;;;;;;25.88;58.85;101725.16;93744;1196;94536;-71
2021/10/01 08:34:50;;;;;;;12.50;11.10;;;;;;;25.82;58.72;101725.90;93715;1197;80475;-70
2021/10/01 08:36:54;;;;;;;12.70;10.80;;;;;;;26.21;57.49;101724.64;93747;1197;80117;-69
2021/10/01 08:38:58;;;;;;;12.40;10.10;;;;;;;26.41;55.91;101720.69;93778;1196;98321;-69
2021/10/01 08:41:06;;;;;;;14.70;10.80;;;;;;;25.92;54.67;101724.99;93773;1197;87517;-69
2021/10/01 08:43:12;;;;;;;12.10;9.70;;;;;;;25.62;54.85;101724.05;93758;1196;94591;-76
2021/10/01 08:45:23;;;;;;;11.30;9.20;;;;;;;25.90;55.13;101719.70;93787;1196;78883;-75
2021/10/01 08:47:30;;;;;;;11.70;10.40;;;;;;;25.95;54.56;101720.92;93752;1196;81639;-74
2021/10/01 08:49:40;;;;;;;13.60;11.00;;;;;;;26.13;53.85;101721.76;93792;1196;98258;-76
2021/10/01 08:51:50;;;;;;;13.10;10.50;;;;;;;26.09;53.61;101718.22;93842;1196;86805;-73
2021/10/01 08:53:57;;;;;;;12.80;11.20;;;;;;;26.43;52.61;101710.84;93777;1196;94098;-75
2021/10/01 08:56:06;;;;;;;12.70;11.00;;;;;;;26.50;52.37;101711.67;93708;1196;80064;-74
2021/10/01 08:58:10;;;;;;;13.50;11.80;;;;;;;26.47;52.09;101714.09;93750;1196;80675;-76
2021/10/01 09:00:18;;;;;;;15.20;13.20;;;;;;;26.55;51.58;101710.39;93686;1196;99775;-73
2021/10/01 09:02:22;;;;;;;13.70;12.20;;;;;;;26.71;51.29;101713.11;93641;1198;87063;-75
2021/10/01 09:04:26;;;;;;;14.60;13.20;;;;;;;26.60;50.99;101714.88;93714;1196;93224;-75
2021/10/01 09:06:30;;;;;;;14.50;12.30;;;;;;;26.51;50.85;101715.19;93746;1197;78416;-76
2021/10/01 09:08:49;;;;;;;13.30;12.00;;;;;;;26.58;50.34;101714.42;93731;1196;84052;-68
2021/10/01 09:11:07;;;;;;;13.70;11.70;;;;;;;26.45;50.00;101712.02;93774;1196;97488;-78
2021/10/01 09:13:20;;;;;;;12.50;11.30;;;;;;;26.62;49.65;101715.27;93756;1196;87448;-67
2021/10/01 09:15:23;;;;;;;;;;;;;;;26.69;48.93;101712.52;93761;1196;93848;-67
2021/10/01 09:17:30;;;;;;;11.10;10.00;;;;;;;26.55;48.59;101716.84;93759;1197;78215;-68
2021/10/01 09:19:41;;;;;;;11.10;10.00;;;;;;;26.63;48.64;101715.28;93673;1196;80400;-73
2021/10/01 09:21:48;;;;;;;12.30;10.90;;;;;;;26.86;48.08;101715.52;93748;1196;99917;-76
2021/10/01 09:24:03;;;;;;;12.60;11.40;;;;;;;26.88;48.11;101713.16;93735;1197;88135;-75
2021/10/01 09:26:11;;;;;;;14.40;12.90;;;;;;;26.72;46.71;101713.33;93684;1198;93248;-73
2021/10/01 09:28:15;;;;;;;15.40;13.70;;;;;;;26.27;47.40;101717.94;93644;1196;77918;-69
2021/10/01 09:30:22;;;;;;;14.60;13.10;;;;;;;25.99;46.59;101716.98;93669;1198;82023;-66
2021/10/01 09:32:29;;;;;;;14.80;13.30;;;;;;;25.91;46.62;101717.78;93651;1198;99773;-71
2021/10/01 09:34:38;;;;;;;14.70;13.20;;;;;;;25.85;46.52;101718.42;93658;1196;86366;-68
2021/10/01 09:36:57;;;;;;;16.90;15.20;;;;;;;25.82;47.08;101719.10;93730;1196;93477;-68
2021/10/01 09:39:03;;;;;;;18.40;15.70;;;;;;;25.65;46.46;101718.73;93720;1196;79238;-67
2021/10/01 09:41:17;;;;;;;16.30;14.80;;;;;;;25.26;46.20;101721.80;93761;1196;80328;-66
2021/10/01 09:43:32;;;;;;;15.60;14.10;;;;;;;25.01;46.04;101725.02;93714;1196;99165;-66
2021/10/01 09:45:36;;;;;;;18.30;15.50;;;;;;;24.27;46.03;101722.73;93715;1196;88320;-67
2021/10/01 09:47:45;;;;;;;17.10;15.30;;;;;;;23.79;46.87;101724.36;93743;1196;94632;-67
2021/10/01 09:49:58;;;;;;;18.00;16.00;;;;;;;23.32;47.45;101729.38;93698;1181;80424;-68
2021/10/01 09:52:04;;;;;;;18.70;16.70;;;;;;;22.51;48.46;101718.91;93678;1198;81978;-68
2021/10/01 09:54:14;;;;;;;19.40;16.60;;;;;;;21.96;49.16;101723.69;93698;1196;97811;-74
2021/10/01 09:56:27;;;;;;;18.80;15.90;;;;;;;21.43;49.95;101732.64;93730;1196;86683;-74
2021/10/01 09:58:31;;;;;;;21.00;16.80;;;;;;;20.98;50.50;101735.36;93670;1196;95588;-75
2021/10/01 10:00:41;;;;;;;21.30;15.30;;;;;;;20.50;50.85;101733.64;93664;1196;79269;-76
2021/10/01 10:02:46;;;;;;;20.80;16.20;;;;;;;19.96;51.44;101732.02;93736;1197;81012;-74
2021/10/01 10:04:57;;;;;;;19.60;15.60;;;;;;;19.31;51.71;101736.27;93802;1196;99797;-73
2021/10/01 10:07:11;;;;;;;18.50;16.00;;;;;;;18.96;52.54;101734.93;93682;1196;87563;-74
2021/10/01 10:09:31;;;;;;;18.70;16.50;;;;;;;18.65;53.22;101735.01;93707;1196;92944;-68
2021/10/01 10:11:41;;;;;;;21.40;18.20;;;;;;;18.45;54.29;101740.36;93791;1196;78847;-66
2021/10/01 10:13:49;;;;;;;24.00;18.40;;;;;;;18.34;54.76;101740.91;93682;1196;82030;-77
2021/10/01 10:16:08;;;;;;;16.30;14.50;;;;;;;18.08;54.94;101735.84;93753;1196;97943;-72
2021/10/01 10:18:20;;;;;;;18.50;14.50;;;;;;;17.62;55.46;101741.13;93713;1196;87270;-69
2021/10/01 10:20:24;;;;;;;17.30;14.40;;;;;;;17.50;55.78;101736.94;93681;1196;94170;-71
2021/10/01 10:22:31;;;;;;;15.90;13.30;;;;;;;17.35;56.06;101737.08;93755;1196;79648;-71
2021/10/01 10:24:40;;;;;;;20.60;15.00;;;;;;;17.23;56.26;101735.36;93818;1196;81395;-69
2021/10/01 10:26:44;;;;;;;21.70;16.60;;;;;;;17.17;57.01;101733.80;93719;1196;97292;-69
2021/10/01 10:28:49;;;;;;;17.50;14.70;;;;;;;17.14;57.03;101733.53;93744;1196;87042;-66
2021/10/01 10:30:55;;;;;;;16.90;14.10;;;;;;;17.13;57.40;101735.67;93729;1196;93621;-67
2021/10/01 10:32:59;;;;;;;20.60;17.10;;;;;;;16.97;57.46;101729.68;93731;1196;78764;-69
2021/10/01 10:35:08;;;;;;;22.60;16.90;;;;;;;16.90;57.77;101727.56;93695;1196;81713;-70
2021/10/01 10:37:12;;;;;;;20.00;16.00;;;;;;;16.89;57.81;101731.09;93709;1196;100009;-69
2021/10/01 10:39:54;;;;;;;21.40;16.20;;;;;;;16.78;58.01;101726.76;93747;1197;88775;-69
2021/10/01 10:42:14;;;;;;;17.60;15.40;;;;;;;16.72;58.54;101728.92;93756;1196;94616;-67
2021/10/01 10:44:41;;;;;;;19.30;14.90;;;;;;;16.72;58.92;101725.86;93735;1196;79841;-63
2021/10/01 10:46:48;;;;;;;18.60;13.20;;;;;;;16.77;59.10;101722.63;93764;1196;81323;-64
2021/10/01 10:49:21;;;;;;;16.60;13.50;;;;;;;16.79;59.06;101721.89;93610;1198;98985;-60
2021/10/01 10:52:04;;;;;;;16.70;12.10;;;;;;;16.71;59.22;101720.94;93767;1196;86420;-61
2021/10/01 10:54:09;;;;;;;17.50;12.00;;;;;;;16.62;58.85;101717.84;93711;1196;92954;-64
2021/10/01 10:56:19;;;;;;;12.90;11.00;;;;;;;16.55;58.94;101711.27;93701;1197;78163;-64
2021/10/01 10:58:50;;;;;;;18.70;12.40;;;;;;;16.47;59.20;101710.91;93753;1196;81123;-61
2021/10/01 11:03:34;;;;;;;15.70;12.30;;;;;;;16.40;59.77;101703.25;94412;1182;84244;-62
2021/10/01 11:05:39;;;;;;;13.90;11.00;;;;;;;16.30;59.68;101702.49;94028;1195;93296;-60
2021/10/01 11:07:52;;;;;;;11.10;6.70;;;;;;;16.08;59.50;101697.91;93979;1195;78459;-66
2021/10/01 11:09:56;;;;;;;;;;;;;;;16.04;59.46;101697.17;94081;1195;81153;-59
2021/10/01 11:12:27;;;;;;;6.80;5.10;;;;;;;15.98;59.57;101695.52;94034;1195;98943;-61